Darstellungsparameter: Aktuell verwendete Einstellungen:
Skalierung der Graphiken ... ?
xyx+y,   Skalierungsfaktor:      Skalierung: Modus: x, Faktor: 1
Darstellungszeitraum ... ?
Vom - - bis: - -   Zeitraum: 12.05.2020 - 13.05.2020
Min/Max/Avg-Anzeige ... ?
Zeige MMA aktuell
Zeige MMA Monat
Zeige MMA alles
Zeige --A aktuell
Zeige --A Monat
Zeige --A alles
Keine MMA-Anzeige
MMA:
Average (ber die Originaldaten)
MMA-Basis: 12.05.2020 - 13.05.2020
Quicknavigation für Darstellung... ?
Tage:      1T, 2T, 3T, 5T -1T -2T -3T -5T +1T +2T +3T +5T
Wochen: 1W, 2W, 3W -1W -2W -3W +1W +2W +3W
Monate: 1M, 3M, 6M -1M -3M -6M +1M +3M +6M
Jahre:    1J, 3J, 5J, 10J -1J -3J -5J -10J +1J +3J +5J +10J
Nutze für die Darstellung ... ?
Originaldaten oder Mittelwerte auf ...
Stundenbasis Tagesbasis Wochenbasis
Monatsbasis Jahresbasis      Datenbasis: Original-Daten
Darstellen als:
Statistik (Auto) Statistik J:M      Darstellung:
Zur Graphik,    zurück zur Übersicht aller Sensoren.
 
Tabellarische Datenbersicht: ?
 
Sensor: Nr:Datum:Temp:Abs-Feuchte:Windchill:Wind:
Aussen-T/F 1 12-05-2020 00:00:00 6.3 C 5.33 g/m*3 6.3 C 1.6 km/h
2 12-05-2020 00:05:00 6.1 C 5.33 g/m*3 6.1 C 4.8 km/h
3 12-05-2020 00:10:00 5.8 C 5.16 g/m*3 5.8 C 1.6 km/h
4 12-05-2020 00:15:00 5.7 C 5.19 g/m*3 5.7 C 1.6 km/h
5 12-05-2020 00:20:00 5.6 C 5.23 g/m*3 5.6 C 4.8 km/h
6 12-05-2020 00:25:00 5.4 C 5.16 g/m*3 5.4 C 3.2 km/h
7 12-05-2020 00:30:00 5.2 C 5.16 g/m*3 5.2 C 3.2 km/h
8 12-05-2020 00:35:00 5.1 C 5.2 g/m*3 5.1 C 3.2 km/h
9 12-05-2020 00:40:00 5 C 5.16 g/m*3 5 C 1.6 km/h
10 12-05-2020 00:45:00 4.8 C 5.1 g/m*3 4.8 C 0 km/h
11 12-05-2020 00:50:00 4.8 C 5.16 g/m*3 4.8 C 0 km/h
12 12-05-2020 00:55:00 4.7 C 5.06 g/m*3 4.7 C 3.2 km/h
13 12-05-2020 01:00:00 4.6 C 5.1 g/m*3 4.6 C 4.8 km/h
14 12-05-2020 01:05:00 4.4 C 5.03 g/m*3 4.4 C 0 km/h
15 12-05-2020 01:10:00 4.3 C 4.99 g/m*3 4.3 C 1.6 km/h
16 12-05-2020 01:15:00 4.3 C 4.99 g/m*3 4.3 C 3.2 km/h
17 12-05-2020 01:20:00 4.2 C 4.96 g/m*3 4.2 C 1.6 km/h
18 12-05-2020 01:25:00 4.1 C 4.99 g/m*3 4.1 C 3.2 km/h
19 12-05-2020 01:30:00 3.9 C 4.93 g/m*3 3.9 C 3.2 km/h
20 12-05-2020 01:35:00 3.9 C 4.99 g/m*3 3.9 C 0 km/h
21 12-05-2020 01:40:00 3.8 C 4.96 g/m*3 3.8 C 0 km/h
22 12-05-2020 01:45:00 3.8 C 4.96 g/m*3 3.8 C 1.6 km/h
23 12-05-2020 01:50:00 3.9 C 4.99 g/m*3 3.9 C 1.6 km/h
24 12-05-2020 01:55:00 4.1 C 4.99 g/m*3 4.1 C 3.2 km/h
25 12-05-2020 02:00:00 4.2 C 4.96 g/m*3 4.2 C 3.2 km/h
Sensor: Nr:Datum:Temp:Abs-Feuchte:Windchill:Wind:
Aussen-T/F 26 12-05-2020 02:05:00 4.3 C 4.86 g/m*3 4.3 C 3.2 km/h
27 12-05-2020 02:10:00 4.4 C 4.96 g/m*3 4.4 C 3.2 km/h
28 12-05-2020 02:15:00 4.3 C 4.86 g/m*3 4.3 C 1.6 km/h
29 12-05-2020 02:20:00 4.2 C 4.9 g/m*3 4.2 C 0 km/h
30 12-05-2020 02:25:00 4.2 C 4.77 g/m*3 4.2 C 4.8 km/h
31 12-05-2020 02:30:00 4.3 C 4.86 g/m*3 4.3 C 3.2 km/h
32 12-05-2020 02:35:00 4.3 C 4.86 g/m*3 4.3 C 3.2 km/h
33 12-05-2020 02:40:00 4.2 C 4.9 g/m*3 4.2 C 4.8 km/h
34 12-05-2020 02:45:00 4 C 4.83 g/m*3 4 C 4.8 km/h
35 12-05-2020 02:50:00 3.8 C 4.83 g/m*3 2.21 C 6.4 km/h
36 12-05-2020 02:55:00 3.6 C 4.77 g/m*3 1.98 C 6.4 km/h
37 12-05-2020 03:00:00 3.5 C 4.8 g/m*3 1.86 C 6.4 km/h
38 12-05-2020 03:05:00 3.4 C 4.83 g/m*3 3.4 C 4.8 km/h
39 12-05-2020 03:10:00 3.2 C 4.76 g/m*3 3.2 C 3.2 km/h
40 12-05-2020 03:15:00 3.1 C 4.73 g/m*3 3.1 C 4.8 km/h
41 12-05-2020 03:20:00 3.1 C 4.79 g/m*3 3.1 C 4.8 km/h
42 12-05-2020 03:25:00 2.9 C 4.72 g/m*3 1.17 C 6.4 km/h
43 12-05-2020 03:30:00 2.9 C 4.72 g/m*3 1.17 C 6.4 km/h
44 12-05-2020 03:35:00 2.8 C 4.69 g/m*3 2.8 C 4.8 km/h
45 12-05-2020 03:40:00 2.8 C 4.75 g/m*3 0.52 C 8.1 km/h
46 12-05-2020 03:45:00 2.7 C 4.72 g/m*3 2.7 C 4.8 km/h
47 12-05-2020 03:50:00 2.7 C 4.72 g/m*3 2.7 C 4.8 km/h
48 12-05-2020 03:55:00 2.7 C 4.72 g/m*3 2.7 C 4.8 km/h
49 12-05-2020 04:00:00 2.7 C 4.72 g/m*3 2.7 C 4.8 km/h
50 12-05-2020 04:05:00 2.6 C 4.69 g/m*3 0.82 C 6.4 km/h
Sensor: Nr:Datum:Temp:Abs-Feuchte:Windchill:Wind:
Aussen-T/F 51 12-05-2020 04:10:00 2.6 C 4.75 g/m*3 0.82 C 6.4 km/h
52 12-05-2020 04:15:00 2.5 C 4.71 g/m*3 2.5 C 3.2 km/h
53 12-05-2020 04:20:00 2.5 C 4.71 g/m*3 2.5 C 4.8 km/h
54 12-05-2020 04:25:00 2.4 C 4.68 g/m*3 2.4 C 3.2 km/h
55 12-05-2020 04:30:00 2.3 C 4.65 g/m*3 0.47 C 6.4 km/h
56 12-05-2020 04:35:00 2.3 C 4.65 g/m*3 -0.07 C 8.1 km/h
57 12-05-2020 04:40:00 2.3 C 4.65 g/m*3 -0.07 C 8.1 km/h
58 12-05-2020 04:45:00 2.3 C 4.65 g/m*3 0.47 C 6.4 km/h
59 12-05-2020 04:50:00 2.3 C 4.65 g/m*3 -0.07 C 8.1 km/h
60 12-05-2020 04:55:00 2.4 C 4.68 g/m*3 0.59 C 6.4 km/h
61 12-05-2020 05:00:00 2.3 C 4.65 g/m*3 0.47 C 6.4 km/h
62 12-05-2020 05:05:00 2.3 C 4.65 g/m*3 -0.07 C 8.1 km/h
63 12-05-2020 05:10:00 2.2 C 4.62 g/m*3 -0.18 C 8.1 km/h
64 12-05-2020 05:15:00 2.2 C 4.68 g/m*3 -0.18 C 8.1 km/h
65 12-05-2020 05:20:00 2.2 C 4.68 g/m*3 2.2 C 4.8 km/h
66 12-05-2020 05:25:00 2.1 C 4.64 g/m*3 2.1 C 3.2 km/h
67 12-05-2020 05:30:00 2 C 4.61 g/m*3 0.13 C 6.4 km/h
68 12-05-2020 05:35:00 1.9 C 4.58 g/m*3 1.9 C 4.8 km/h
69 12-05-2020 05:40:00 1.9 C 4.64 g/m*3 1.9 C 0 km/h
70 12-05-2020 05:45:00 1.8 C 4.6 g/m*3 1.8 C 1.6 km/h
71 12-05-2020 05:50:00 1.7 C 4.57 g/m*3 1.7 C 0 km/h
72 12-05-2020 05:55:00 1.6 C 4.6 g/m*3 1.6 C 0 km/h
73 12-05-2020 06:00:00 1.5 C 4.57 g/m*3 1.5 C 0 km/h
74 12-05-2020 06:05:00 1.4 C 4.53 g/m*3 1.4 C 0 km/h
75 12-05-2020 06:10:00 1.3 C 4.56 g/m*3 1.3 C 0 km/h
Sensor: Nr:Datum:Temp:Abs-Feuchte:Windchill:Wind:
Aussen-T/F 76 12-05-2020 06:15:00 1.2 C 4.53 g/m*3 1.2 C 0 km/h
77 12-05-2020 06:20:00 1.2 C 4.58 g/m*3 1.2 C 3.2 km/h
78 12-05-2020 06:25:00 1.1 C 4.55 g/m*3 1.1 C 0 km/h
79 12-05-2020 06:30:00 1.1 C 4.55 g/m*3 1.1 C 0 km/h
80 12-05-2020 06:35:00 1 C 4.57 g/m*3 1 C 0 km/h
81 12-05-2020 06:40:00 1 C 4.57 g/m*3 1 C 0 km/h
82 12-05-2020 06:45:00 1 C 4.57 g/m*3 1 C 0 km/h
83 12-05-2020 06:50:00 1 C 4.62 g/m*3 1 C 0 km/h
84 12-05-2020 06:55:00 0.9 C 4.59 g/m*3 0.9 C 0 km/h
85 12-05-2020 07:00:00 1 C 4.62 g/m*3 1 C 0 km/h
86 12-05-2020 07:05:00 1 C 4.67 g/m*3 1 C 0 km/h
87 12-05-2020 07:10:00 1.1 C 4.7 g/m*3 1.1 C 0 km/h
88 12-05-2020 07:15:00 1.2 C 4.74 g/m*3 1.2 C 0 km/h
89 12-05-2020 07:20:00 1.2 C 4.74 g/m*3 1.2 C 0 km/h
90 12-05-2020 07:25:00 1.2 C 4.74 g/m*3 1.2 C 0 km/h
91 12-05-2020 07:30:00 1.3 C 4.77 g/m*3 1.3 C 0 km/h
92 12-05-2020 07:35:00 1.3 C 4.82 g/m*3 1.3 C 0 km/h
93 12-05-2020 07:40:00 1.4 C 4.85 g/m*3 1.4 C 3.2 km/h
94 12-05-2020 07:45:00 1.5 C 4.89 g/m*3 1.5 C 1.6 km/h
95 12-05-2020 07:50:00 1.6 C 4.92 g/m*3 1.6 C 0 km/h
96 12-05-2020 07:55:00 1.7 C 4.95 g/m*3 1.7 C 0 km/h
97 12-05-2020 08:00:00 1.8 C 4.99 g/m*3 1.8 C 0 km/h
98 12-05-2020 08:05:00 1.9 C 5.02 g/m*3 1.9 C 0 km/h
99 12-05-2020 08:10:00 2.1 C 5.09 g/m*3 2.1 C 0 km/h
100 12-05-2020 08:15:00 2.1 C 5.09 g/m*3 2.1 C 1.6 km/h
Sensor: Nr:Datum:Temp:Abs-Feuchte:Windchill:Wind:
Aussen-T/F 101 12-05-2020 08:20:00 2.2 C 5.07 g/m*3 2.2 C 0 km/h
102 12-05-2020 08:25:00 2.3 C 5.16 g/m*3 2.3 C 0 km/h
103 12-05-2020 08:30:00 2.5 C 5.23 g/m*3 2.5 C 0 km/h
104 12-05-2020 08:35:00 2.7 C 5.3 g/m*3 2.7 C 0 km/h
105 12-05-2020 08:40:00 2.8 C 5.34 g/m*3 2.8 C 0 km/h
106 12-05-2020 08:45:00 3 C 5.35 g/m*3 3 C 0 km/h
107 12-05-2020 08:50:00 3.2 C 5.42 g/m*3 3.2 C 3.2 km/h
108 12-05-2020 08:55:00 3.3 C 5.4 g/m*3 3.3 C 0 km/h
109 12-05-2020 09:00:00 3.5 C 5.47 g/m*3 3.5 C 0 km/h
110 12-05-2020 09:05:00 3.7 C 5.55 g/m*3 3.7 C 0 km/h
111 12-05-2020 09:10:00 3.8 C 5.52 g/m*3 3.8 C 0 km/h
112 12-05-2020 09:15:00 3.9 C 5.56 g/m*3 3.9 C 0 km/h
113 12-05-2020 09:20:00 4.1 C 5.63 g/m*3 4.1 C 0 km/h
114 12-05-2020 09:25:00 4.3 C 5.64 g/m*3 4.3 C 0 km/h
115 12-05-2020 09:30:00 4.4 C 5.55 g/m*3 4.4 C 1.6 km/h
116 12-05-2020 09:35:00 4.7 C 5.53 g/m*3 4.7 C 0 km/h
117 12-05-2020 09:40:00 4.9 C 5.67 g/m*3 4.9 C 0 km/h
118 12-05-2020 09:45:00 5.1 C 5.68 g/m*3 5.1 C 3.2 km/h
119 12-05-2020 09:50:00 5.2 C 5.65 g/m*3 5.2 C 0 km/h
120 12-05-2020 09:55:00 5.4 C 5.65 g/m*3 5.4 C 3.2 km/h
121 12-05-2020 10:00:00 5.5 C 5.69 g/m*3 5.5 C 0 km/h
122 12-05-2020 10:05:00 5.7 C 5.48 g/m*3 5.7 C 1.6 km/h
123 12-05-2020 10:10:00 6.2 C 5.59 g/m*3 6.2 C 1.6 km/h
124 12-05-2020 10:15:00 6.6 C 5.51 g/m*3 6.6 C 3.2 km/h
125 12-05-2020 10:20:00 6.8 C 5.51 g/m*3 6.8 C 3.2 km/h
Sensor: Nr:Datum:Temp:Abs-Feuchte:Windchill:Wind:
Aussen-T/F 126 12-05-2020 10:25:00 6.9 C 5.47 g/m*3 6.9 C 3.2 km/h
127 12-05-2020 10:30:00 7.2 C 5.49 g/m*3 7.2 C 4.8 km/h
128 12-05-2020 10:35:00 7.4 C 5.33 g/m*3 5.93 C 8.1 km/h
129 12-05-2020 10:40:00 7.8 C 5.39 g/m*3 6.4 C 8.1 km/h
130 12-05-2020 10:45:00 7.9 C 5.5 g/m*3 7.9 C 3.2 km/h
131 12-05-2020 10:50:00 8.2 C 5.44 g/m*3 7.29 C 6.4 km/h
132 12-05-2020 10:55:00 8.4 C 5.51 g/m*3 8.4 C 1.6 km/h
133 12-05-2020 11:00:00 8.6 C 5.33 g/m*3 8.6 C 1.6 km/h
134 12-05-2020 11:05:00 8.7 C 5.19 g/m*3 7.46 C 8.1 km/h
135 12-05-2020 11:10:00 8.8 C 5.22 g/m*3 8.8 C 3.2 km/h
136 12-05-2020 11:15:00 8.8 C 5.05 g/m*3 7.98 C 6.4 km/h
137 12-05-2020 11:20:00 8.8 C 5.05 g/m*3 8.8 C 3.2 km/h
138 12-05-2020 11:25:00 9 C 5.03 g/m*3 7.81 C 8.1 km/h
139 12-05-2020 11:30:00 9.2 C 5.18 g/m*3 9.2 C 3.2 km/h
140 12-05-2020 11:35:00 9.2 C 5 g/m*3 8.45 C 6.4 km/h
141 12-05-2020 11:40:00 9.3 C 5.03 g/m*3 9.3 C 3.2 km/h
142 12-05-2020 11:45:00 9.4 C 4.79 g/m*3 7.97 C 9.7 km/h
143 12-05-2020 11:50:00 9.5 C 4.82 g/m*3 7.82 C 11.3 km/h
144 12-05-2020 11:55:00 9.6 C 4.67 g/m*3 8.21 C 9.7 km/h
145 12-05-2020 12:00:00 9.7 C 4.61 g/m*3 8.06 C 11.3 km/h
146 12-05-2020 12:05:00 9.7 C 4.52 g/m*3 8.63 C 8.1 km/h
147 12-05-2020 12:10:00 9.6 C 4.49 g/m*3 8.21 C 9.7 km/h
148 12-05-2020 12:15:00 9.7 C 4.43 g/m*3 8.06 C 11.3 km/h
149 12-05-2020 12:20:00 9.8 C 4.36 g/m*3 8.75 C 8.1 km/h
150 12-05-2020 12:25:00 9.7 C 4.33 g/m*3 8.63 C 8.1 km/h
Sensor: Nr:Datum:Temp:Abs-Feuchte:Windchill:Wind:
Aussen-T/F 151 12-05-2020 12:30:00 9.7 C 4.06 g/m*3 8.33 C 9.7 km/h
152 12-05-2020 12:35:00 9.8 C 4.18 g/m*3 8.18 C 11.3 km/h
153 12-05-2020 12:40:00 10.2 C 3.81 g/m*3 8.92 C 9.7 km/h
154 12-05-2020 12:45:00 10.4 C 3.57 g/m*3 9.46 C 8.1 km/h
155 12-05-2020 12:50:00 10.4 C 3.47 g/m*3 9.46 C 8.1 km/h
156 12-05-2020 12:55:00 10.4 C 3.76 g/m*3 10.4 C 4.8 km/h
157 12-05-2020 13:00:00 10.3 C 3.83 g/m*3 10.3 C 3.2 km/h
158 12-05-2020 13:05:00 10.4 C 3.66 g/m*3 9.16 C 9.7 km/h
159 12-05-2020 13:10:00 10.6 C 3.9 g/m*3 9.4 C 9.7 km/h
160 12-05-2020 13:15:00 10.8 C 3.95 g/m*3 9.16 C 12.9 km/h
161 12-05-2020 13:20:00 11 C 4.2 g/m*3 9.4 C 12.9 km/h
162 12-05-2020 13:25:00 11.1 C 4.23 g/m*3 11.1 C 8.1 km/h
163 12-05-2020 13:30:00 11.1 C 4.03 g/m*3 11.1 C 11.3 km/h
164 12-05-2020 13:35:00 11.1 C 4.13 g/m*3 11.1 C 9.7 km/h
165 12-05-2020 13:40:00 11.2 C 4.36 g/m*3 11.2 C 11.3 km/h
166 12-05-2020 13:45:00 11.2 C 4.26 g/m*3 11.2 C 6.4 km/h
167 12-05-2020 13:50:00 11.2 C 4.46 g/m*3 11.2 C 6.4 km/h
168 12-05-2020 13:55:00 11.2 C 4.36 g/m*3 11.2 C 6.4 km/h
169 12-05-2020 14:00:00 11.3 C 4.69 g/m*3 11.3 C 4.8 km/h
170 12-05-2020 14:05:00 11.5 C 4.54 g/m*3 11.5 C 16.1 km/h
171 12-05-2020 14:10:00 11.7 C 4.29 g/m*3 11.7 C 16.1 km/h
172 12-05-2020 14:15:00 11.9 C 4.55 g/m*3 11.9 C 9.7 km/h
173 12-05-2020 14:20:00 11.9 C 4.45 g/m*3 11.9 C 8.1 km/h
174 12-05-2020 14:25:00 11.9 C 4.45 g/m*3 11.9 C 6.4 km/h
175 12-05-2020 14:30:00 12.2 C 4.64 g/m*3 12.2 C 8.1 km/h
Sensor: Nr:Datum:Temp:Abs-Feuchte:Windchill:Wind:
Aussen-T/F 176 12-05-2020 14:35:00 12.2 C 5.07 g/m*3 12.2 C 11.3 km/h
177 12-05-2020 14:40:00 12.3 C 4.78 g/m*3 12.3 C 11.3 km/h
178 12-05-2020 14:45:00 12.5 C 5.06 g/m*3 12.5 C 8.1 km/h
179 12-05-2020 14:50:00 12.7 C 4.79 g/m*3 12.7 C 14.5 km/h
180 12-05-2020 14:55:00 12.7 C 4.79 g/m*3 12.7 C 8.1 km/h
181 12-05-2020 15:00:00 12.8 C 4.7 g/m*3 12.8 C 11.3 km/h
182 12-05-2020 15:05:00 12.7 C 4.79 g/m*3 12.7 C 8.1 km/h
183 12-05-2020 15:10:00 12.6 C 4.65 g/m*3 12.6 C 9.7 km/h
184 12-05-2020 15:15:00 12.6 C 4.98 g/m*3 12.6 C 14.5 km/h
185 12-05-2020 15:20:00 12.8 C 5.04 g/m*3 12.8 C 17.7 km/h
186 12-05-2020 15:25:00 12.8 C 4.93 g/m*3 12.8 C 11.3 km/h
187 12-05-2020 15:30:00 12.7 C 4.79 g/m*3 12.7 C 8.1 km/h
188 12-05-2020 15:35:00 12.8 C 4.93 g/m*3 12.8 C 3.2 km/h
189 12-05-2020 15:40:00 13.3 C 5.31 g/m*3 13.3 C 9.7 km/h
190 12-05-2020 15:45:00 13.9 C 5.27 g/m*3 13.9 C 12.9 km/h
191 12-05-2020 15:50:00 14.2 C 5.25 g/m*3 14.2 C 14.5 km/h
192 12-05-2020 15:55:00 14.1 C 4.98 g/m*3 14.1 C 14.5 km/h
193 12-05-2020 16:00:00 13.8 C 4.89 g/m*3 13.8 C 9.7 km/h
194 12-05-2020 16:05:00 14.1 C 5.22 g/m*3 14.1 C 12.9 km/h
195 12-05-2020 16:10:00 14.3 C 5.04 g/m*3 14.3 C 4.8 km/h
196 12-05-2020 16:15:00 14.7 C 5.29 g/m*3 14.7 C 8.1 km/h
197 12-05-2020 16:20:00 14.7 C 5.16 g/m*3 14.7 C 11.3 km/h
198 12-05-2020 16:25:00 14.2 C 5.01 g/m*3 14.2 C 8.1 km/h
199 12-05-2020 16:30:00 13.7 C 5.21 g/m*3 13.7 C 3.2 km/h
200 12-05-2020 16:35:00 13.9 C 4.92 g/m*3 13.9 C 11.3 km/h
Sensor: Nr:Datum:Temp:Abs-Feuchte:Windchill:Wind:
Aussen-T/F 201 12-05-2020 16:40:00 14.1 C 5.34 g/m*3 14.1 C 6.4 km/h
202 12-05-2020 16:45:00 14 C 5.07 g/m*3 14 C 11.3 km/h
203 12-05-2020 16:50:00 13.6 C 5.06 g/m*3 13.6 C 14.5 km/h
204 12-05-2020 16:55:00 13.8 C 5.12 g/m*3 13.8 C 8.1 km/h
205 12-05-2020 17:00:00 14.1 C 5.22 g/m*3 14.1 C 6.4 km/h
206 12-05-2020 17:05:00 14.3 C 5.16 g/m*3 14.3 C 9.7 km/h
207 12-05-2020 17:10:00 14.4 C 5.19 g/m*3 14.4 C 9.7 km/h
208 12-05-2020 17:15:00 14.5 C 5.35 g/m*3 14.5 C 12.9 km/h
209 12-05-2020 17:20:00 14.7 C 5.16 g/m*3 14.7 C 12.9 km/h
210 12-05-2020 17:25:00 14 C 5.07 g/m*3 14 C 12.9 km/h
211 12-05-2020 17:30:00 13.4 C 5.11 g/m*3 13.4 C 8.1 km/h
212 12-05-2020 17:35:00 13.4 C 5.35 g/m*3 13.4 C 4.8 km/h
213 12-05-2020 17:40:00 13.8 C 5.24 g/m*3 13.8 C 8.1 km/h
214 12-05-2020 17:45:00 14.1 C 5.22 g/m*3 14.1 C 8.1 km/h
215 12-05-2020 17:50:00 14.6 C 5.51 g/m*3 14.6 C 8.1 km/h
216 12-05-2020 17:55:00 15 C 5.39 g/m*3 15 C 8.1 km/h
217 12-05-2020 18:00:00 15.2 C 5.32 g/m*3 15.2 C 4.8 km/h
218 12-05-2020 18:05:00 15.3 C 5.22 g/m*3 15.3 C 8.1 km/h
219 12-05-2020 18:10:00 15.1 C 5.16 g/m*3 15.1 C 8.1 km/h
220 12-05-2020 18:15:00 14.9 C 5.23 g/m*3 14.9 C 11.3 km/h
221 12-05-2020 18:20:00 15 C 5.39 g/m*3 15 C 9.7 km/h
222 12-05-2020 18:25:00 15 C 5.26 g/m*3 15 C 8.1 km/h
223 12-05-2020 18:30:00 15 C 5.51 g/m*3 15 C 6.4 km/h
224 12-05-2020 18:35:00 15.1 C 5.42 g/m*3 15.1 C 6.4 km/h
225 12-05-2020 18:40:00 14.9 C 5.35 g/m*3 14.9 C 4.8 km/h
Sensor: Nr:Datum:Temp:Abs-Feuchte:Windchill:Wind:
Aussen-T/F 226 12-05-2020 18:45:00 14.8 C 5.45 g/m*3 14.8 C 6.4 km/h
227 12-05-2020 18:50:00 14.7 C 5.41 g/m*3 14.7 C 8.1 km/h
228 12-05-2020 18:55:00 14.8 C 5.57 g/m*3 14.8 C 6.4 km/h
229 12-05-2020 19:00:00 14.7 C 5.29 g/m*3 14.7 C 8.1 km/h
230 12-05-2020 19:05:00 14.4 C 5.19 g/m*3 14.4 C 8.1 km/h
231 12-05-2020 19:10:00 14.2 C 5.25 g/m*3 14.2 C 6.4 km/h
232 12-05-2020 19:15:00 14.1 C 5.22 g/m*3 14.1 C 3.2 km/h
233 12-05-2020 19:20:00 13.8 C 5.24 g/m*3 13.8 C 6.4 km/h
234 12-05-2020 19:25:00 13.6 C 5.3 g/m*3 13.6 C 4.8 km/h
235 12-05-2020 19:30:00 13.4 C 5.23 g/m*3 13.4 C 6.4 km/h
236 12-05-2020 19:35:00 13.2 C 5.28 g/m*3 13.2 C 6.4 km/h
237 12-05-2020 19:40:00 12.9 C 5.18 g/m*3 12.9 C 8.1 km/h
238 12-05-2020 19:45:00 12.8 C 5.26 g/m*3 12.8 C 6.4 km/h
239 12-05-2020 19:50:00 12.7 C 5.23 g/m*3 12.7 C 9.7 km/h
240 12-05-2020 19:55:00 12.6 C 5.31 g/m*3 12.6 C 4.8 km/h
241 12-05-2020 20:00:00 12.4 C 5.24 g/m*3 12.4 C 4.8 km/h
242 12-05-2020 20:05:00 12.3 C 5.21 g/m*3 12.3 C 6.4 km/h
243 12-05-2020 20:10:00 12.3 C 5.21 g/m*3 12.3 C 4.8 km/h
244 12-05-2020 20:15:00 12.3 C 5.21 g/m*3 12.3 C 3.2 km/h
245 12-05-2020 20:20:00 12.3 C 5.21 g/m*3 12.3 C 1.6 km/h
246 12-05-2020 20:25:00 12.2 C 5.4 g/m*3 12.2 C 3.2 km/h
247 12-05-2020 20:30:00 12.2 C 5.94 g/m*3 12.2 C 3.2 km/h
248 12-05-2020 20:35:00 12 C 6.07 g/m*3 12 C 0 km/h
249 12-05-2020 20:40:00 11.8 C 6.21 g/m*3 11.8 C 0 km/h
250 12-05-2020 20:45:00 11.4 C 6.06 g/m*3 11.4 C 1.6 km/h
Sensor: Nr:Datum:Temp:Abs-Feuchte:Windchill:Wind:
Aussen-T/F 251 12-05-2020 20:50:00 11.1 C 6.14 g/m*3 11.1 C 0 km/h
252 12-05-2020 20:55:00 10.7 C 6.09 g/m*3 10.7 C 1.6 km/h
253 12-05-2020 21:00:00 10.2 C 6 g/m*3 10.2 C 0 km/h
254 12-05-2020 21:05:00 9.9 C 6.07 g/m*3 9.9 C 1.6 km/h
255 12-05-2020 21:10:00 9.6 C 6.05 g/m*3 9.6 C 1.6 km/h
256 12-05-2020 21:15:00 9.3 C 6.02 g/m*3 9.3 C 0 km/h
257 12-05-2020 21:20:00 9.1 C 5.94 g/m*3 9.1 C 0 km/h
258 12-05-2020 21:25:00 8.8 C 5.74 g/m*3 8.8 C 4.8 km/h
259 12-05-2020 21:30:00 8.7 C 5.79 g/m*3 8.7 C 0 km/h
260 12-05-2020 21:35:00 8.5 C 5.72 g/m*3 8.5 C 3.2 km/h
261 12-05-2020 21:40:00 8.3 C 5.73 g/m*3 8.3 C 4.8 km/h
262 12-05-2020 21:45:00 8.2 C 5.69 g/m*3 8.2 C 3.2 km/h
263 12-05-2020 21:50:00 8.1 C 5.74 g/m*3 8.1 C 0 km/h
264 12-05-2020 21:55:00 7.9 C 5.75 g/m*3 7.9 C 0 km/h
265 12-05-2020 22:00:00 7.8 C 5.63 g/m*3 7.8 C 0 km/h
266 12-05-2020 22:05:00 7.7 C 5.59 g/m*3 7.7 C 3.2 km/h
267 12-05-2020 22:10:00 7.7 C 5.59 g/m*3 7.7 C 4.8 km/h
268 12-05-2020 22:15:00 7.7 C 5.59 g/m*3 7.7 C 3.2 km/h
269 12-05-2020 22:20:00 7.6 C 5.56 g/m*3 7.6 C 3.2 km/h
270 12-05-2020 22:25:00 7.4 C 5.49 g/m*3 7.4 C 3.2 km/h
271 12-05-2020 22:30:00 7.3 C 5.45 g/m*3 7.3 C 4.8 km/h
272 12-05-2020 22:35:00 7.3 C 5.61 g/m*3 7.3 C 4.8 km/h
273 12-05-2020 22:40:00 7.2 C 5.49 g/m*3 7.2 C 4.8 km/h
274 12-05-2020 22:45:00 7.2 C 5.57 g/m*3 7.2 C 4.8 km/h
275 12-05-2020 22:50:00 7.1 C 5.54 g/m*3 6.02 C 6.4 km/h
Sensor: Nr:Datum:Temp:Abs-Feuchte:Windchill:Wind:
Aussen-T/F 276 12-05-2020 22:55:00 7 C 5.5 g/m*3 7 C 4.8 km/h
277 12-05-2020 23:00:00 6.9 C 5.54 g/m*3 5.79 C 6.4 km/h
278 12-05-2020 23:05:00 6.9 C 5.54 g/m*3 6.9 C 4.8 km/h
279 12-05-2020 23:10:00 6.8 C 5.51 g/m*3 6.8 C 4.8 km/h
280 12-05-2020 23:15:00 6.8 C 5.58 g/m*3 6.8 C 4.8 km/h
281 12-05-2020 23:20:00 6.8 C 5.51 g/m*3 6.8 C 4.8 km/h
282 12-05-2020 23:25:00 6.7 C 5.47 g/m*3 5.56 C 6.4 km/h
283 12-05-2020 23:30:00 6.7 C 5.47 g/m*3 6.7 C 4.8 km/h
284 12-05-2020 23:35:00 6.7 C 5.55 g/m*3 6.7 C 1.6 km/h
285 12-05-2020 23:40:00 6.6 C 5.59 g/m*3 6.6 C 4.8 km/h
286 12-05-2020 23:45:00 6.4 C 5.51 g/m*3 4.75 C 8.1 km/h
287 12-05-2020 23:50:00 6.4 C 5.51 g/m*3 6.4 C 4.8 km/h
288 12-05-2020 23:55:00 6.4 C 5.59 g/m*3 6.4 C 0 km/h
289 13-05-2020 00:00:00 6.3 C 5.63 g/m*3 6.3 C 1.6 km/h
290 13-05-2020 00:05:00 6.2 C 5.59 g/m*3 6.2 C 0 km/h
291 13-05-2020 00:10:00 6.1 C 5.63 g/m*3 6.1 C 0 km/h
292 13-05-2020 00:15:00 5.9 C 5.55 g/m*3 5.9 C 0 km/h
293 13-05-2020 00:20:00 5.8 C 5.59 g/m*3 5.8 C 0 km/h
294 13-05-2020 00:25:00 5.6 C 5.51 g/m*3 5.6 C 0 km/h
295 13-05-2020 00:30:00 5.4 C 5.51 g/m*3 5.4 C 0 km/h
296 13-05-2020 00:35:00 5.3 C 5.48 g/m*3 5.3 C 0 km/h
297 13-05-2020 00:40:00 5.2 C 5.51 g/m*3 5.2 C 0 km/h
298 13-05-2020 00:45:00 5.1 C 5.47 g/m*3 5.1 C 1.6 km/h
299 13-05-2020 00:50:00 5 C 5.44 g/m*3 5 C 0 km/h
300 13-05-2020 00:55:00 4.9 C 5.47 g/m*3 4.9 C 0 km/h
Sensor: Nr:Datum:Temp:Abs-Feuchte:Windchill:Wind:
Aussen-T/F 301 13-05-2020 01:00:00 4.8 C 5.43 g/m*3 4.8 C 0 km/h
302 13-05-2020 01:05:00 4.7 C 5.4 g/m*3 4.7 C 0 km/h
303 13-05-2020 01:10:00 4.6 C 5.43 g/m*3 4.6 C 0 km/h
304 13-05-2020 01:15:00 4.5 C 5.39 g/m*3 4.5 C 0 km/h
305 13-05-2020 01:20:00 4.3 C 5.32 g/m*3 4.3 C 0 km/h
306 13-05-2020 01:25:00 4.2 C 5.35 g/m*3 4.2 C 0 km/h
307 13-05-2020 01:30:00 4.2 C 5.35 g/m*3 4.2 C 0 km/h
308 13-05-2020 01:35:00 4.1 C 5.31 g/m*3 4.1 C 0 km/h
309 13-05-2020 01:40:00 4 C 5.34 g/m*3 4 C 0 km/h
310 13-05-2020 01:45:00 3.9 C 5.31 g/m*3 3.9 C 0 km/h
311 13-05-2020 01:50:00 3.8 C 5.27 g/m*3 3.8 C 0 km/h
312 13-05-2020 01:55:00 3.7 C 5.23 g/m*3 3.7 C 0 km/h
313 13-05-2020 02:00:00 3.7 C 5.23 g/m*3 3.7 C 0 km/h
314 13-05-2020 02:05:00 3.6 C 5.2 g/m*3 3.6 C 0 km/h
315 13-05-2020 02:10:00 3.5 C 5.23 g/m*3 3.5 C 1.6 km/h
316 13-05-2020 02:15:00 3.5 C 5.23 g/m*3 3.5 C 0 km/h
317 13-05-2020 02:20:00 3.4 C 5.19 g/m*3 3.4 C 0 km/h
318 13-05-2020 02:25:00 3.3 C 5.16 g/m*3 3.3 C 0 km/h
319 13-05-2020 02:30:00 3.3 C 5.16 g/m*3 3.3 C 0 km/h
320 13-05-2020 02:35:00 3.2 C 5.12 g/m*3 3.2 C 0 km/h
321 13-05-2020 02:40:00 3.2 C 5.18 g/m*3 3.2 C 0 km/h
322 13-05-2020 02:45:00 3.1 C 5.15 g/m*3 3.1 C 0 km/h
323 13-05-2020 02:50:00 3.1 C 5.15 g/m*3 3.1 C 0 km/h
324 13-05-2020 02:55:00 3 C 5.11 g/m*3 3 C 0 km/h
325 13-05-2020 03:00:00 3 C 5.17 g/m*3 3 C 0 km/h
Sensor: Nr:Datum:Temp:Abs-Feuchte:Windchill:Wind:
Aussen-T/F 326 13-05-2020 03:05:00 2.9 C 5.14 g/m*3 2.9 C 0 km/h
327 13-05-2020 03:10:00 2.9 C 5.14 g/m*3 2.9 C 0 km/h
328 13-05-2020 03:15:00 2.8 C 5.1 g/m*3 2.8 C 0 km/h
329 13-05-2020 03:20:00 2.8 C 5.1 g/m*3 2.8 C 0 km/h
330 13-05-2020 03:25:00 2.7 C 5.13 g/m*3 2.7 C 0 km/h
331 13-05-2020 03:30:00 2.6 C 5.09 g/m*3 2.6 C 0 km/h
332 13-05-2020 03:35:00 2.6 C 5.09 g/m*3 2.6 C 0 km/h
333 13-05-2020 03:40:00 2.5 C 5.06 g/m*3 2.5 C 0 km/h
334 13-05-2020 03:45:00 2.4 C 5.08 g/m*3 2.4 C 1.6 km/h
335 13-05-2020 03:50:00 2.4 C 5.08 g/m*3 2.4 C 0 km/h
336 13-05-2020 03:55:00 2.4 C 5.08 g/m*3 2.4 C 0 km/h
337 13-05-2020 04:00:00 2.3 C 5.05 g/m*3 2.3 C 1.6 km/h
338 13-05-2020 04:05:00 2.3 C 5.05 g/m*3 2.3 C 0 km/h
339 13-05-2020 04:10:00 2.3 C 5.05 g/m*3 2.3 C 0 km/h
340 13-05-2020 04:15:00 2.3 C 5.1 g/m*3 2.3 C 0 km/h
341 13-05-2020 04:20:00 2.2 C 5.07 g/m*3 2.2 C 0 km/h
342 13-05-2020 04:25:00 2.2 C 5.07 g/m*3 2.2 C 0 km/h
343 13-05-2020 04:30:00 2.1 C 5.04 g/m*3 2.1 C 0 km/h
344 13-05-2020 04:35:00 2.1 C 5.04 g/m*3 2.1 C 1.6 km/h
345 13-05-2020 04:40:00 2.1 C 5.04 g/m*3 2.1 C 0 km/h
346 13-05-2020 04:45:00 2 C 5 g/m*3 2 C 0 km/h
347 13-05-2020 04:50:00 1.9 C 4.97 g/m*3 1.9 C 0 km/h
348 13-05-2020 04:55:00 1.9 C 5.02 g/m*3 1.9 C 0 km/h
349 13-05-2020 05:00:00 1.9 C 5.02 g/m*3 1.9 C 0 km/h
350 13-05-2020 05:05:00 1.9 C 5.02 g/m*3 1.9 C 0 km/h
Sensor: Nr:Datum:Temp:Abs-Feuchte:Windchill:Wind:
Aussen-T/F 351 13-05-2020 05:10:00 1.9 C 5.02 g/m*3 1.9 C 1.6 km/h
352 13-05-2020 05:15:00 1.8 C 4.99 g/m*3 1.8 C 0 km/h
353 13-05-2020 05:20:00 1.9 C 5.02 g/m*3 1.9 C 0 km/h
354 13-05-2020 05:25:00 1.9 C 5.08 g/m*3 1.9 C 0 km/h
355 13-05-2020 05:30:00 2 C 5.11 g/m*3 2 C 0 km/h
356 13-05-2020 05:35:00 2.1 C 5.15 g/m*3 2.1 C 0 km/h
357 13-05-2020 05:40:00 2.2 C 5.18 g/m*3 2.2 C 0 km/h
358 13-05-2020 05:45:00 2.3 C 5.27 g/m*3 2.3 C 0 km/h
359 13-05-2020 05:50:00 2.4 C 5.31 g/m*3 2.4 C 0 km/h
360 13-05-2020 05:55:00 2.4 C 5.25 g/m*3 2.4 C 0 km/h
361 13-05-2020 06:00:00 2.5 C 5.29 g/m*3 2.5 C 0 km/h
362 13-05-2020 06:05:00 2.6 C 5.38 g/m*3 2.6 C 0 km/h
363 13-05-2020 06:10:00 2.7 C 5.42 g/m*3 2.7 C 0 km/h
364 13-05-2020 06:15:00 2.7 C 5.36 g/m*3 2.7 C 0 km/h
365 13-05-2020 06:20:00 2.8 C 5.4 g/m*3 2.8 C 4.8 km/h
366 13-05-2020 06:25:00 2.9 C 5.43 g/m*3 2.9 C 4.8 km/h
367 13-05-2020 06:30:00 3 C 5.47 g/m*3 3 C 0 km/h
368 13-05-2020 06:35:00 3.1 C 5.51 g/m*3 3.1 C 0 km/h
369 13-05-2020 06:40:00 3.1 C 5.51 g/m*3 3.1 C 0 km/h
370 13-05-2020 06:45:00 3.1 C 5.51 g/m*3 3.1 C 0 km/h
371 13-05-2020 06:50:00 3.2 C 5.48 g/m*3 3.2 C 0 km/h
372 13-05-2020 06:55:00 3.3 C 5.52 g/m*3 3.3 C 0 km/h
373 13-05-2020 07:00:00 3.3 C 5.52 g/m*3 3.3 C 0 km/h
374 13-05-2020 07:05:00 3.4 C 5.56 g/m*3 3.4 C 0 km/h
375 13-05-2020 07:10:00 3.4 C 5.56 g/m*3 3.4 C 0 km/h
Sensor: Nr:Datum:Temp:Abs-Feuchte:Windchill:Wind:
Aussen-T/F 376 13-05-2020 07:15:00 3.5 C 5.6 g/m*3 3.5 C 3.2 km/h
377 13-05-2020 07:20:00 3.6 C 5.57 g/m*3 3.6 C 1.6 km/h
378 13-05-2020 07:25:00 3.7 C 5.61 g/m*3 3.7 C 1.6 km/h
379 13-05-2020 07:30:00 3.7 C 5.61 g/m*3 2.09 C 6.4 km/h
380 13-05-2020 07:35:00 3.8 C 5.65 g/m*3 2.21 C 6.4 km/h
381 13-05-2020 07:40:00 3.9 C 5.62 g/m*3 3.9 C 4.8 km/h
382 13-05-2020 07:45:00 4.1 C 5.7 g/m*3 4.1 C 3.2 km/h
383 13-05-2020 07:50:00 4.2 C 5.73 g/m*3 4.2 C 4.8 km/h
384 13-05-2020 07:55:00 4.3 C 5.77 g/m*3 4.3 C 3.2 km/h
385 13-05-2020 08:00:00 4.5 C 5.78 g/m*3 4.5 C 3.2 km/h
386 13-05-2020 08:05:00 4.7 C 5.8 g/m*3 4.7 C 0 km/h
387 13-05-2020 08:10:00 4.8 C 5.83 g/m*3 4.8 C 3.2 km/h
388 13-05-2020 08:15:00 5 C 5.84 g/m*3 5 C 3.2 km/h
389 13-05-2020 08:20:00 5.2 C 5.85 g/m*3 5.2 C 3.2 km/h
390 13-05-2020 08:25:00 5.3 C 5.82 g/m*3 5.3 C 1.6 km/h
391 13-05-2020 08:30:00 5.5 C 5.9 g/m*3 5.5 C 0 km/h
392 13-05-2020 08:35:00 5.6 C 5.94 g/m*3 5.6 C 1.6 km/h
393 13-05-2020 08:40:00 5.7 C 5.91 g/m*3 5.7 C 0 km/h
394 13-05-2020 08:45:00 5.8 C 5.95 g/m*3 5.8 C 0 km/h
395 13-05-2020 08:50:00 5.9 C 5.98 g/m*3 5.9 C 0 km/h
396 13-05-2020 08:55:00 6 C 5.95 g/m*3 6 C 0 km/h
397 13-05-2020 09:00:00 6.1 C 6.06 g/m*3 6.1 C 0 km/h
398 13-05-2020 09:05:00 6.1 C 6.06 g/m*3 6.1 C 0 km/h
399 13-05-2020 09:10:00 6.2 C 6.18 g/m*3 6.2 C 1.6 km/h
400 13-05-2020 09:15:00 6.2 C 6.25 g/m*3 6.2 C 0 km/h
Sensor: Nr:Datum:Temp:Abs-Feuchte:Windchill:Wind:
Aussen-T/F 401 13-05-2020 09:20:00 6.2 C 6.25 g/m*3 6.2 C 1.6 km/h
402 13-05-2020 09:25:00 6.3 C 6.22 g/m*3 6.3 C 3.2 km/h
403 13-05-2020 09:30:00 6.3 C 6.29 g/m*3 6.3 C 0 km/h
404 13-05-2020 09:35:00 6.4 C 6.33 g/m*3 6.4 C 0 km/h
405 13-05-2020 09:40:00 6.6 C 6.34 g/m*3 6.6 C 0 km/h
406 13-05-2020 09:45:00 6.7 C 6.38 g/m*3 6.7 C 0 km/h
407 13-05-2020 09:50:00 6.9 C 6.47 g/m*3 6.9 C 0 km/h
408 13-05-2020 09:55:00 7 C 6.43 g/m*3 7 C 1.6 km/h
409 13-05-2020 10:00:00 7.2 C 6.12 g/m*3 7.2 C 3.2 km/h
410 13-05-2020 10:05:00 7.6 C 6.2 g/m*3 7.6 C 1.6 km/h
411 13-05-2020 10:10:00 7.8 C 6.2 g/m*3 7.8 C 1.6 km/h
412 13-05-2020 10:15:00 8.2 C 5.86 g/m*3 8.2 C 4.8 km/h
413 13-05-2020 10:20:00 8.4 C 6.11 g/m*3 8.4 C 0 km/h
414 13-05-2020 10:25:00 8.8 C 6.01 g/m*3 8.8 C 3.2 km/h
415 13-05-2020 10:30:00 9.2 C 5.98 g/m*3 9.2 C 3.2 km/h
416 13-05-2020 10:35:00 9.6 C 5.95 g/m*3 9.6 C 4.8 km/h
417 13-05-2020 10:40:00 9.8 C 5.85 g/m*3 9.8 C 1.6 km/h
418 13-05-2020 10:45:00 10.1 C 5.86 g/m*3 10.1 C 1.6 km/h
419 13-05-2020 10:50:00 10.3 C 5.84 g/m*3 10.3 C 3.2 km/h
420 13-05-2020 10:55:00 10.6 C 5.95 g/m*3 10.6 C 1.6 km/h
421 13-05-2020 11:00:00 10.7 C 5.99 g/m*3 10.18 C 6.4 km/h
422 13-05-2020 11:05:00 11.1 C 6.04 g/m*3 11.1 C 8.1 km/h
423 13-05-2020 11:10:00 11.4 C 5.95 g/m*3 11.4 C 11.3 km/h
424 13-05-2020 11:15:00 11.5 C 5.99 g/m*3 11.5 C 3.2 km/h
425 13-05-2020 11:20:00 11.6 C 5.82 g/m*3 11.6 C 6.4 km/h
Sensor: Nr:Datum:Temp:Abs-Feuchte:Windchill:Wind:
Aussen-T/F 426 13-05-2020 11:25:00 11.7 C 5.86 g/m*3 11.7 C 4.8 km/h
427 13-05-2020 11:30:00 11.9 C 5.93 g/m*3 11.9 C 4.8 km/h
428 13-05-2020 11:35:00 12.1 C 5.9 g/m*3 12.1 C 6.4 km/h
429 13-05-2020 11:40:00 12.2 C 5.83 g/m*3 12.2 C 11.3 km/h
430 13-05-2020 11:45:00 12.2 C 5.94 g/m*3 12.2 C 6.4 km/h
431 13-05-2020 11:50:00 12.3 C 5.75 g/m*3 12.3 C 9.7 km/h
432 13-05-2020 11:55:00 12.3 C 5.75 g/m*3 12.3 C 6.4 km/h
433 13-05-2020 12:00:00 12.3 C 5.54 g/m*3 12.3 C 12.9 km/h
434 13-05-2020 12:05:00 12.4 C 5.57 g/m*3 12.4 C 6.4 km/h
435 13-05-2020 12:10:00 12.4 C 5.68 g/m*3 12.4 C 9.7 km/h
436 13-05-2020 12:15:00 12.7 C 5.79 g/m*3 12.7 C 9.7 km/h
437 13-05-2020 12:20:00 12.8 C 5.71 g/m*3 12.8 C 9.7 km/h
438 13-05-2020 12:25:00 13.1 C 5.71 g/m*3 13.1 C 3.2 km/h
439 13-05-2020 12:30:00 13.2 C 5.74 g/m*3 13.2 C 8.1 km/h
440 13-05-2020 12:35:00 13.3 C 5.55 g/m*3 13.3 C 6.4 km/h
441 13-05-2020 12:40:00 13.5 C 5.73 g/m*3 13.5 C 8.1 km/h
442 13-05-2020 12:45:00 13.6 C 5.53 g/m*3 13.6 C 8.1 km/h
443 13-05-2020 12:50:00 13.6 C 5.77 g/m*3 13.6 C 11.3 km/h
444 13-05-2020 12:55:00 13.7 C 5.92 g/m*3 13.7 C 8.1 km/h
445 13-05-2020 13:00:00 13.8 C 5.96 g/m*3 13.8 C 12.9 km/h
446 13-05-2020 13:05:00 13.8 C 5.84 g/m*3 13.8 C 11.3 km/h
447 13-05-2020 13:10:00 13.8 C 5.96 g/m*3 13.8 C 9.7 km/h
448 13-05-2020 13:15:00 13.8 C 5.84 g/m*3 13.8 C 12.9 km/h
449 13-05-2020 13:20:00 13.6 C 5.88 g/m*3 13.6 C 8.1 km/h
450 13-05-2020 13:25:00 13.5 C 5.85 g/m*3 13.5 C 9.7 km/h
Sensor: Nr:Datum:Temp:Abs-Feuchte:Windchill:Wind:
Aussen-T/F 451 13-05-2020 13:30:00 13.4 C 5.93 g/m*3 13.4 C 6.4 km/h
452 13-05-2020 13:35:00 13.5 C 5.85 g/m*3 13.5 C 12.9 km/h
453 13-05-2020 13:40:00 13.6 C 6 g/m*3 13.6 C 6.4 km/h
454 13-05-2020 13:45:00 13.7 C 5.8 g/m*3 13.7 C 6.4 km/h
455 13-05-2020 13:50:00 13.6 C 5.88 g/m*3 13.6 C 14.5 km/h
456 13-05-2020 13:55:00 13.6 C 5.88 g/m*3 13.6 C 16.1 km/h
457 13-05-2020 14:00:00 13.4 C 5.7 g/m*3 13.4 C 16.1 km/h
458 13-05-2020 14:05:00 13.4 C 5.7 g/m*3 13.4 C 8.1 km/h
459 13-05-2020 14:10:00 13.8 C 5.96 g/m*3 13.8 C 9.7 km/h
460 13-05-2020 14:15:00 14.1 C 5.95 g/m*3 14.1 C 11.3 km/h
461 13-05-2020 14:20:00 14.2 C 6.11 g/m*3 14.2 C 8.1 km/h
462 13-05-2020 14:25:00 14.3 C 6.02 g/m*3 14.3 C 6.4 km/h
463 13-05-2020 14:30:00 14.4 C 5.69 g/m*3 14.4 C 6.4 km/h
464 13-05-2020 14:35:00 14.3 C 5.65 g/m*3 14.3 C 12.9 km/h
465 13-05-2020 14:40:00 14.4 C 5.69 g/m*3 14.4 C 11.3 km/h
466 13-05-2020 14:45:00 14.4 C 5.81 g/m*3 14.4 C 9.7 km/h
467 13-05-2020 14:50:00 14.6 C 5.88 g/m*3 14.6 C 8.1 km/h
468 13-05-2020 14:55:00 14.7 C 5.79 g/m*3 14.7 C 12.9 km/h
469 13-05-2020 15:00:00 14.6 C 5.76 g/m*3 14.6 C 12.9 km/h
470 13-05-2020 15:05:00 14.8 C 5.83 g/m*3 14.8 C 12.9 km/h
471 13-05-2020 15:10:00 14.7 C 5.67 g/m*3 14.7 C 11.3 km/h
472 13-05-2020 15:15:00 14.6 C 5.76 g/m*3 14.6 C 14.5 km/h
473 13-05-2020 15:20:00 14.4 C 5.69 g/m*3 14.4 C 16.1 km/h
474 13-05-2020 15:25:00 14.1 C 5.83 g/m*3 14.1 C 14.5 km/h
475 13-05-2020 15:30:00 14.1 C 5.7 g/m*3 14.1 C 12.9 km/h
Sensor: Nr:Datum:Temp:Abs-Feuchte:Windchill:Wind:
Aussen-T/F 476 13-05-2020 15:35:00 14.4 C 5.93 g/m*3 14.4 C 14.5 km/h
477 13-05-2020 15:40:00 14.8 C 5.83 g/m*3 14.8 C 12.9 km/h
478 13-05-2020 15:45:00 15 C 5.77 g/m*3 15 C 11.3 km/h
479 13-05-2020 15:50:00 15.2 C 5.71 g/m*3 15.2 C 16.1 km/h
480 13-05-2020 15:55:00 15.1 C 5.81 g/m*3 15.1 C 11.3 km/h
481 13-05-2020 16:00:00 15.2 C 5.84 g/m*3 15.2 C 9.7 km/h
482 13-05-2020 16:05:00 15.3 C 5.75 g/m*3 15.3 C 8.1 km/h
483 13-05-2020 16:10:00 15.2 C 5.71 g/m*3 15.2 C 6.4 km/h
484 13-05-2020 16:15:00 15.1 C 5.81 g/m*3 15.1 C 12.9 km/h
485 13-05-2020 16:20:00 15.2 C 5.71 g/m*3 15.2 C 9.7 km/h
486 13-05-2020 16:25:00 15.1 C 5.68 g/m*3 15.1 C 8.1 km/h
487 13-05-2020 16:30:00 15.1 C 5.81 g/m*3 15.1 C 12.9 km/h
488 13-05-2020 16:35:00 14.8 C 5.57 g/m*3 14.8 C 16.1 km/h
489 13-05-2020 16:40:00 14.5 C 5.47 g/m*3 14.5 C 12.9 km/h
490 13-05-2020 16:45:00 14.4 C 5.56 g/m*3 14.4 C 16.1 km/h
491 13-05-2020 16:50:00 14.3 C 5.65 g/m*3 14.3 C 14.5 km/h
492 13-05-2020 16:55:00 14.3 C 5.65 g/m*3 14.3 C 11.3 km/h
493 13-05-2020 17:00:00 14.6 C 5.88 g/m*3 14.6 C 9.7 km/h
494 13-05-2020 17:05:00 14.9 C 5.74 g/m*3 14.9 C 9.7 km/h
495 13-05-2020 17:10:00 14.8 C 5.57 g/m*3 14.8 C 8.1 km/h
496 13-05-2020 17:15:00 14.6 C 5.51 g/m*3 14.6 C 9.7 km/h
497 13-05-2020 17:20:00 14.6 C 5.76 g/m*3 14.6 C 8.1 km/h
498 13-05-2020 17:25:00 14.6 C 5.63 g/m*3 14.6 C 11.3 km/h
499 13-05-2020 17:30:00 14.4 C 5.56 g/m*3 14.4 C 14.5 km/h
500 13-05-2020 17:35:00 14.4 C 5.69 g/m*3 14.4 C 12.9 km/h
Sensor: Nr:Datum:Temp:Abs-Feuchte:Windchill:Wind:
Aussen-T/F 501 13-05-2020 17:40:00 14.6 C 5.63 g/m*3 14.6 C 11.3 km/h
502 13-05-2020 17:45:00 14.6 C 5.63 g/m*3 14.6 C 16.1 km/h
503 13-05-2020 17:50:00 14.5 C 5.6 g/m*3 14.5 C 9.7 km/h
504 13-05-2020 17:55:00 14.4 C 5.44 g/m*3 14.4 C 6.4 km/h
505 13-05-2020 18:00:00 14.4 C 5.56 g/m*3 14.4 C 9.7 km/h
506 13-05-2020 18:05:00 14.3 C 5.41 g/m*3 14.3 C 9.7 km/h
507 13-05-2020 18:10:00 14.3 C 5.41 g/m*3 14.3 C 12.9 km/h
508 13-05-2020 18:15:00 14.2 C 5.37 g/m*3 14.2 C 16.1 km/h
509 13-05-2020 18:20:00 13.9 C 5.39 g/m*3 13.9 C 14.5 km/h
510 13-05-2020 18:25:00 13.7 C 5.33 g/m*3 13.7 C 14.5 km/h
511 13-05-2020 18:30:00 13.6 C 5.53 g/m*3 13.6 C 9.7 km/h
512 13-05-2020 18:35:00 13.4 C 5.46 g/m*3 13.4 C 8.1 km/h
513 13-05-2020 18:40:00 13.3 C 5.55 g/m*3 13.3 C 6.4 km/h
514 13-05-2020 18:45:00 13.3 C 5.55 g/m*3 13.3 C 9.7 km/h
515 13-05-2020 18:50:00 13.2 C 5.51 g/m*3 13.2 C 9.7 km/h
516 13-05-2020 18:55:00 13.1 C 5.36 g/m*3 13.1 C 11.3 km/h
517 13-05-2020 19:00:00 13 C 5.33 g/m*3 13 C 11.3 km/h
518 13-05-2020 19:05:00 13 C 5.44 g/m*3 13 C 8.1 km/h
519 13-05-2020 19:10:00 13.1 C 5.36 g/m*3 13.1 C 9.7 km/h
520 13-05-2020 19:15:00 13.1 C 5.36 g/m*3 13.1 C 11.3 km/h
521 13-05-2020 19:20:00 13 C 5.44 g/m*3 13 C 9.7 km/h
522 13-05-2020 19:25:00 12.9 C 5.41 g/m*3 12.9 C 4.8 km/h
523 13-05-2020 19:30:00 12.9 C 5.41 g/m*3 12.9 C 9.7 km/h
524 13-05-2020 19:35:00 12.8 C 5.49 g/m*3 12.8 C 9.7 km/h
525 13-05-2020 19:40:00 12.8 C 5.38 g/m*3 12.8 C 12.9 km/h
Sensor: Nr:Datum:Temp:Abs-Feuchte:Windchill:Wind:
Aussen-T/F 526 13-05-2020 19:45:00 12.8 C 5.38 g/m*3 12.8 C 8.1 km/h
527 13-05-2020 19:50:00 12.7 C 5.45 g/m*3 12.7 C 4.8 km/h
528 13-05-2020 19:55:00 12.7 C 5.45 g/m*3 12.7 C 6.4 km/h
529 13-05-2020 20:00:00 12.7 C 5.57 g/m*3 12.7 C 6.4 km/h
530 13-05-2020 20:05:00 12.7 C 5.57 g/m*3 12.7 C 3.2 km/h
531 13-05-2020 20:10:00 12.8 C 5.6 g/m*3 12.8 C 4.8 km/h
532 13-05-2020 20:15:00 12.8 C 5.71 g/m*3 12.8 C 4.8 km/h
533 13-05-2020 20:20:00 12.9 C 5.52 g/m*3 12.9 C 6.4 km/h
534 13-05-2020 20:25:00 12.9 C 5.52 g/m*3 12.9 C 6.4 km/h
535 13-05-2020 20:30:00 12.9 C 5.41 g/m*3 12.9 C 6.4 km/h
536 13-05-2020 20:35:00 12.9 C 5.52 g/m*3 12.9 C 4.8 km/h
537 13-05-2020 20:40:00 12.9 C 5.41 g/m*3 12.9 C 4.8 km/h
538 13-05-2020 20:45:00 12.8 C 5.49 g/m*3 12.8 C 4.8 km/h
539 13-05-2020 20:50:00 12.7 C 5.57 g/m*3 12.7 C 4.8 km/h
540 13-05-2020 20:55:00 12.6 C 5.53 g/m*3 12.6 C 1.6 km/h
541 13-05-2020 21:00:00 12.5 C 5.39 g/m*3 12.5 C 4.8 km/h
542 13-05-2020 21:05:00 12.4 C 5.46 g/m*3 12.4 C 4.8 km/h
543 13-05-2020 21:10:00 12.3 C 5.43 g/m*3 12.3 C 4.8 km/h
544 13-05-2020 21:15:00 12.2 C 5.5 g/m*3 12.2 C 8.1 km/h
545 13-05-2020 21:20:00 12.1 C 5.79 g/m*3 12.1 C 8.1 km/h
546 13-05-2020 21:25:00 11.9 C 6.04 g/m*3 11.9 C 4.8 km/h
547 13-05-2020 21:30:00 11.7 C 6.17 g/m*3 11.7 C 9.7 km/h
548 13-05-2020 21:35:00 11.6 C 6.34 g/m*3 11.6 C 11.3 km/h
549 13-05-2020 21:40:00 11.4 C 6.47 g/m*3 11.4 C 8.1 km/h
550 13-05-2020 21:45:00 11.2 C 6.59 g/m*3 11.2 C 9.7 km/h
Sensor: Nr:Datum:Temp:Abs-Feuchte:Windchill:Wind:
Aussen-T/F 551 13-05-2020 21:50:00 11.1 C 6.65 g/m*3 11.1 C 12.9 km/h
552 13-05-2020 21:55:00 10.9 C 6.66 g/m*3 9.76 C 9.7 km/h
553 13-05-2020 22:00:00 10.8 C 6.72 g/m*3 10.29 C 6.4 km/h
554 13-05-2020 22:05:00 10.7 C 6.68 g/m*3 10.18 C 6.4 km/h
555 13-05-2020 22:10:00 10.5 C 6.69 g/m*3 9.95 C 6.4 km/h
556 13-05-2020 22:15:00 10.4 C 6.65 g/m*3 9.46 C 8.1 km/h
557 13-05-2020 22:20:00 10.3 C 6.7 g/m*3 10.3 C 4.8 km/h
558 13-05-2020 22:25:00 10.2 C 6.66 g/m*3 9.22 C 8.1 km/h
559 13-05-2020 22:30:00 10 C 6.67 g/m*3 10 C 4.8 km/h
560 13-05-2020 22:35:00 9.9 C 6.63 g/m*3 8.56 C 9.7 km/h
561 13-05-2020 22:40:00 9.8 C 6.68 g/m*3 7.94 C 12.9 km/h
562 13-05-2020 22:45:00 9.7 C 6.64 g/m*3 9.02 C 6.4 km/h
563 13-05-2020 22:50:00 9.6 C 6.6 g/m*3 8.91 C 6.4 km/h
564 13-05-2020 22:55:00 9.4 C 6.51 g/m*3 8.28 C 8.1 km/h
565 13-05-2020 23:00:00 9.3 C 6.56 g/m*3 8.56 C 6.4 km/h
566 13-05-2020 23:05:00 9.2 C 6.52 g/m*3 8.45 C 6.4 km/h
567 13-05-2020 23:10:00 9.1 C 6.48 g/m*3 7.09 C 12.9 km/h
568 13-05-2020 23:15:00 9 C 6.44 g/m*3 7.21 C 11.3 km/h
569 13-05-2020 23:20:00 8.9 C 6.39 g/m*3 8.9 C 4.8 km/h
570 13-05-2020 23:25:00 8.8 C 6.44 g/m*3 8.8 C 4.8 km/h
571 13-05-2020 23:30:00 8.8 C 6.44 g/m*3 7.98 C 6.4 km/h
572 13-05-2020 23:35:00 8.7 C 6.49 g/m*3 7.46 C 8.1 km/h
573 13-05-2020 23:40:00 8.6 C 6.44 g/m*3 7.34 C 8.1 km/h
574 13-05-2020 23:45:00 8.6 C 6.44 g/m*3 8.6 C 1.6 km/h
575 13-05-2020 23:50:00 8.6 C 6.53 g/m*3 8.6 C 3.2 km/h
Sensor: Nr:Datum:Temp:Abs-Feuchte:Windchill:Wind:
Aussen-T/F 576 13-05-2020 23:55:00 8.4 C 6.45 g/m*3 7.11 C 8.1 km/h

Legende:
   Min
   Max


Maximal/Minimal-Werte vom 12.05.2020 - 13.05.2020

Sensor Min Max Avg
Temp
(Aussen-T/F)
0.9 °C
12-05-2020  06:55:00
15.3 °C
12-05-2020  18:05:00
8.3 °C
Abs-Feuchte
(Aussen-T/F)
3.47 g/m*3
12-05-2020  12:50:00
6.72 g/m*3
13-05-2020  22:00:00
5.36 g/m*3
Windchill
(Aussen-T/F)
-0.18 C
12-05-2020  05:10:00
15.3 C
12-05-2020  18:05:00
8.12 C

Die Daten stammen von einer Davis Vantage Pro 2 Wetter-Station und werden unter Linux mit der Software wview2wettercgi und aufbereitet. Alle Angaben erfolgen ohne Gewähr für ihre Vollständigkeit oder Richtigkeit.
Kontakt: Rainer Krienke krienke@uni-koblenz.de . Meine Webseiten an der Uni Koblenz oder privat.
Version: $Revision: 0.78 $